Time;durP1;ratioP1;P1;durP2;ratioP2;P2;SDS_P1;SDS_P2;PMS_P1;PMS_P2;Temp;Humidity;BMP_temperature;BMP_pressure;BME280_temperature;BME280_humidity;BME280_pressure;Samples;Min_cycle;Max_cycle;Signal;HPM_P1;HPM_P2
2021/03/21 00:00:41;;;;;;;10.25;8.00;;;6.20;95.70;;;;;;5007894;28;20046;-44
2021/03/21 00:03:06;;;;;;;9.18;8.18;;;6.30;95.80;;;;;;5008371;28;20057;-47
2021/03/21 00:05:33;;;;;;;14.05;7.97;;;6.30;95.80;;;;;;5008816;28;20049;-44
2021/03/21 00:08:03;;;;;;;10.10;8.43;;;6.30;95.80;;;;;;5008771;28;20065;-45
2021/03/21 00:10:35;;;;;;;12.82;7.72;;;6.30;95.80;;;;;;5006496;28;20137;-45
2021/03/21 00:13:01;;;;;;;11.10;8.38;;;6.30;95.70;;;;;;5008715;28;20056;-45
2021/03/21 00:15:31;;;;;;;13.75;8.82;;;6.30;95.70;;;;;;5007062;28;20608;-44
2021/03/21 00:18:00;;;;;;;11.90;8.63;;;6.30;95.70;;;;;;5003050;28;20053;-44
2021/03/21 00:20:32;;;;;;;11.43;8.82;;;6.30;95.70;;;;;;5005271;28;20132;-45
2021/03/21 00:23:02;;;;;;;12.35;9.23;;;6.30;95.70;;;;;;5006527;28;20046;-47
2021/03/21 00:25:33;;;;;;;14.20;9.88;;;6.40;95.60;;;;;;5008163;28;20081;-43
2021/03/21 00:27:59;;;;;;;14.05;10.27;;;6.40;95.60;;;;;;5007867;28;20050;-44
2021/03/21 00:30:29;;;;;;;13.52;9.88;;;6.40;95.50;;;;;;5007648;28;20136;-43
2021/03/21 00:32:55;;;;;;;14.90;10.43;;;6.40;95.50;;;;;;5007178;28;20050;-45
2021/03/21 00:35:24;;;;;;;13.20;9.48;;;6.40;95.50;;;;;;5007497;28;20658;-44
2021/03/21 00:38:00;;;;;;;18.23;11.00;;;6.40;95.50;;;;;;5007649;28;20156;-44
2021/03/21 00:40:27;;;;;;;19.80;11.02;;;6.40;95.50;;;;;;5005281;28;20477;-44
2021/03/21 00:42:54;;;;;;;18.92;11.30;;;6.40;95.40;;;;;;4997506;28;20045;-46
2021/03/21 00:45:24;;;;;;;19.52;12.27;;;6.40;95.30;;;;;;5005292;28;20042;-44
2021/03/21 00:47:53;;;;;;;17.73;12.02;;;6.50;95.30;;;;;;5009375;28;20092;-44
2021/03/21 00:50:30;;;;;;;16.88;12.07;;;6.40;95.20;;;;;;5007416;28;20049;-43
2021/03/21 00:52:59;;;;;;;19.83;11.00;;;6.50;95.10;;;;;;5004608;28;20042;-45
2021/03/21 00:55:25;;;;;;;17.58;11.35;;;6.50;95.10;;;;;;5012981;28;20487;-43
2021/03/21 00:57:57;;;;;;;16.38;11.48;;;6.50;95.00;;;;;;5014192;28;20046;-45
2021/03/21 01:00:27;;;;;;;17.30;10.93;;;6.50;95.00;;;;;;5007114;28;20601;-43
2021/03/21 01:02:56;;;;;;;19.00;11.55;;;6.50;95.00;;;;;;4988768;28;20498;-43
2021/03/21 01:05:27;;;;;;;13.13;10.90;;;6.50;95.00;;;;;;5006985;28;20045;-45
2021/03/21 01:07:55;;;;;;;16.23;10.30;;;6.50;95.00;;;;;;5012093;28;20041;-44
2021/03/21 01:10:24;;;;;;;13.93;10.25;;;6.50;94.90;;;;;;5007371;28;20058;-44
2021/03/21 01:12:57;;;;;;;19.55;11.10;;;6.50;94.90;;;;;;5011160;28;20050;-44
2021/03/21 01:15:24;;;;;;;16.88;11.43;;;6.50;95.00;;;;;;5012627;28;20046;-46
2021/03/21 01:17:51;;;;;;;16.95;10.95;;;6.50;94.90;;;;;;5010367;28;20050;-45
2021/03/21 01:20:22;;;;;;;15.88;10.77;;;6.60;94.90;;;;;;5015335;28;20050;-44
2021/03/21 01:22:50;;;;;;;17.02;11.52;;;6.60;94.90;;;;;;5011105;28;20054;-44
2021/03/21 01:25:23;;;;;;;18.20;11.13;;;6.60;94.90;;;;;;5011266;28;20064;-44
2021/03/21 01:27:51;;;;;;;18.50;11.25;;;6.60;94.90;;;;;;5011016;28;20057;-45
2021/03/21 01:30:18;;;;;;;19.30;10.40;;;6.60;94.90;;;;;;5008419;28;20100;-49
2021/03/21 01:32:44;;;;;;;17.67;10.70;;;6.60;94.80;;;;;;5011066;28;20066;-46
2021/03/21 01:35:12;;;;;;;19.63;11.15;;;6.60;94.70;;;;;;5015791;28;20452;-44
2021/03/21 01:37:38;;;;;;;20.98;11.00;;;6.60;94.70;;;;;;5008545;28;20133;-45
2021/03/21 01:40:06;;;;;;;17.63;10.90;;;6.60;94.70;;;;;;5011218;28;20562;-49
2021/03/21 01:42:49;;;;;;;17.58;10.73;;;6.60;94.70;;;;;;5002734;28;20091;-43
2021/03/21 01:45:40;;;;;;;21.88;11.82;;;6.60;94.70;;;;;;5010627;28;20660;-47
2021/03/21 01:48:34;;;;;;;18.60;10.65;;;6.60;94.70;;;;;;5009903;28;20053;-44
2021/03/21 01:51:05;;;;;;;21.45;11.73;;;6.60;94.80;;;;;;4926751;29;20528;-48
2021/03/21 01:53:33;;;;;;;18.90;11.57;;;6.60;94.80;;;;;;4931098;29;20051;-44
2021/03/21 01:56:00;;;;;;;21.02;11.02;;;6.60;94.90;;;;;;4930387;29;20126;-45
2021/03/21 01:58:29;;;;;;;24.52;12.23;;;6.50;95.00;;;;;;4930564;29;20051;-44
2021/03/21 02:01:15;;;;;;;20.10;12.27;;;6.50;95.20;;;;;;4930250;29;20071;-45
2021/03/21 02:03:44;;;;;;;22.75;12.63;;;6.50;95.40;;;;;;4929360;29;20070;-43
2021/03/21 02:06:27;;;;;;;22.65;13.07;;;6.50;95.70;;;;;;4929287;29;20051;-44
2021/03/21 02:09:03;;;;;;;25.40;13.63;;;6.50;95.70;;;;;;4929566;29;20071;-43
2021/03/21 02:12:07;;;;;;;25.27;13.75;;;6.50;95.90;;;;;;4945595;28;20563;-44
2021/03/21 02:14:59;;;;;;;17.83;11.15;;;6.50;96.00;;;;;;4911071;29;20752;-45
2021/03/21 02:17:47;;;;;;;26.13;13.00;;;6.50;96.10;;;;;;4910912;29;20055;-43
2021/03/21 02:20:49;;;;;;;19.98;11.88;;;6.40;96.10;;;;;;4910752;29;20060;-48
2021/03/21 02:23:57;;;;;;;19.10;10.13;;;6.40;96.20;;;;;;4907278;29;20171;-43
2021/03/21 02:26:37;;;;;;;17.88;10.75;;;6.40;96.30;;;;;;4908323;29;20044;-45
2021/03/21 02:29:19;;;;;;;19.17;10.38;;;6.40;96.20;;;;;;4961938;28;20047;-44
2021/03/21 02:32:05;;;;;;;17.27;10.07;;;6.40;96.20;;;;;;4967470;28;20085;-46
2021/03/21 02:34:56;;;;;;;19.90;10.50;;;6.40;96.20;;;;;;4965980;28;20337;-45
2021/03/21 02:37:40;;;;;;;14.38;9.35;;;6.40;96.10;;;;;;4970896;28;20142;-44
2021/03/21 02:40:26;;;;;;;12.52;8.32;;;6.40;96.00;;;;;;4967991;28;20043;-46
2021/03/21 02:43:17;;;;;;;20.65;10.30;;;6.40;95.90;;;;;;4967358;28;20057;-46
2021/03/21 02:45:49;;;;;;;19.27;9.67;;;6.30;95.60;;;;;;4966420;28;20124;-46
2021/03/21 02:48:32;;;;;;;20.08;10.02;;;6.30;95.60;;;;;;4967534;28;20310;-46
2021/03/21 02:51:05;;;;;;;17.65;9.05;;;6.30;95.30;;;;;;4980669;28;20061;-44
2021/03/21 02:53:59;;;;;;;19.75;9.80;;;6.40;95.30;;;;;;5009108;28;20048;-46
2021/03/21 02:56:28;;;;;;;15.75;9.82;;;6.30;95.30;;;;;;5008366;28;20443;-45
2021/03/21 02:59:06;;;;;;;18.40;8.77;;;6.30;95.50;;;;;;5009576;28;20058;-44
2021/03/21 03:02:02;;;;;;;18.50;9.35;;;6.30;95.20;;;;;;5009022;28;20398;-46
2021/03/21 03:04:33;;;;;;;20.52;9.52;;;6.30;95.10;;;;;;5008613;28;20077;-46
2021/03/21 03:07:40;;;;;;;17.42;9.60;;;6.30;95.00;;;;;;5009389;28;20046;-44
2021/03/21 03:10:14;;;;;;;15.45;8.07;;;6.30;94.90;;;;;;5009086;28;20184;-45
2021/03/21 03:12:51;;;;;;;17.23;8.30;;;6.30;94.80;;;;;;5009206;28;20076;-43
2021/03/21 03:15:21;;;;;;;19.58;8.88;;;6.30;94.70;;;;;;5007761;28;20127;-45
2021/03/21 03:17:59;;;;;;;16.75;7.80;;;6.30;94.60;;;;;;5004997;28;20140;-44
2021/03/21 03:20:36;;;;;;;15.73;7.68;;;6.30;94.60;;;;;;5012688;28;20482;-44
2021/03/21 03:23:08;;;;;;;22.05;9.10;;;6.30;94.60;;;;;;5009131;28;20049;-44
2021/03/21 03:25:43;;;;;;;19.42;8.65;;;6.30;94.50;;;;;;5014667;28;20046;-48
2021/03/21 03:28:30;;;;;;;21.90;8.93;;;6.30;94.60;;;;;;5008520;28;20058;-46
2021/03/21 03:31:15;;;;;;;17.27;7.35;;;6.30;94.50;;;;;;5006540;28;20125;-44
2021/03/21 03:33:41;;;;;;;15.07;7.22;;;6.30;94.60;;;;;;5005630;28;20411;-44
2021/03/21 03:36:13;;;;;;;16.42;7.85;;;6.30;94.60;;;;;;5010803;28;20096;-44
2021/03/21 03:38:45;;;;;;;20.20;8.40;;;6.30;94.60;;;;;;5007680;28;20099;-44
2021/03/21 03:41:17;;;;;;;19.20;8.15;;;6.30;94.60;;;;;;5008448;28;20580;-46
2021/03/21 03:43:55;;;;;;;18.23;8.40;;;6.30;94.70;;;;;;5008240;28;20046;-45
2021/03/21 03:46:32;;;;;;;14.90;7.25;;;6.30;94.70;;;;;;5006400;28;20534;-45
2021/03/21 03:49:08;;;;;;;18.25;7.10;;;6.30;94.50;;;;;;5007786;28;20042;-45
2021/03/21 03:51:49;;;;;;;19.08;7.80;;;6.30;94.70;;;;;;5008088;28;20050;-47
2021/03/21 03:54:30;;;;;;;14.57;7.50;;;6.30;94.60;;;;;;5004451;28;20791;-45
2021/03/21 03:57:11;;;;;;;23.13;7.78;;;6.30;94.60;;;;;;5007303;28;20327;-46
2021/03/21 04:00:11;;;;;;;22.50;7.13;;;6.30;94.70;;;;;;5007928;28;20120;-45
2021/03/21 04:02:55;;;;;;;20.10;6.72;;;6.30;94.80;;;;;;5004231;28;20056;-46
2021/03/21 04:05:46;;;;;;;15.65;6.38;;;6.20;94.90;;;;;;5006021;28;20482;-48
2021/03/21 04:08:28;;;;;;;18.15;6.10;;;6.20;95.10;;;;;;5006865;28;20057;-45
2021/03/21 04:11:00;;;;;;;17.73;5.60;;;6.20;95.10;;;;;;5007849;28;20053;-45
2021/03/21 04:13:45;;;;;;;18.35;5.93;;;6.20;95.10;;;;;;5008093;28;20085;-46
2021/03/21 04:16:16;;;;;;;17.25;5.82;;;6.20;95.10;;;;;;5003722;28;20053;-44
2021/03/21 04:18:58;;;;;;;17.20;4.75;;;6.20;95.00;;;;;;5007703;28;20100;-47
2021/03/21 04:21:45;;;;;;;13.15;4.45;;;6.20;95.00;;;;;;5005829;28;20549;-46
2021/03/21 04:24:24;;;;;;;13.18;4.28;;;6.20;94.90;;;;;;5005718;28;20042;-47
2021/03/21 04:27:27;;;;;;;13.57;4.68;;;6.20;94.90;;;;;;5009619;28;20040;-45
2021/03/21 04:30:13;;;;;;;23.58;5.05;;;6.20;94.90;;;;;;5012855;28;20045;-46
2021/03/21 04:32:50;;;;;;;15.98;4.85;;;6.20;95.00;;;;;;5007842;28;20565;-47
2021/03/21 04:35:23;;;;;;;17.27;4.30;;;6.20;95.10;;;;;;5012516;28;20040;-45
2021/03/21 04:38:00;;;;;;;15.20;3.75;;;6.20;95.10;;;;;;5007533;28;20069;-47
2021/03/21 04:40:31;;;;;;;17.50;3.92;;;6.20;95.00;;;;;;5007629;28;20061;-44
2021/03/21 04:43:01;;;;;;;15.40;3.83;;;6.20;94.90;;;;;;5006837;28;20050;-46
2021/03/21 04:45:33;;;;;;;18.40;4.35;;;6.20;94.90;;;;;;5007958;28;20477;-44
2021/03/21 04:48:05;;;;;;;19.42;4.00;;;6.20;94.90;;;;;;5009649;28;20111;-46
2021/03/21 04:50:37;;;;;;;;;;;6.10;94.90;;;;;;5010160;28;20102;-46
2021/03/21 04:53:46;;;;;;;19.90;3.35;;;6.10;94.80;;;;;;5011017;28;19971;-45
2021/03/21 04:56:31;;;;;;;13.80;2.92;;;6.10;94.40;;;;;;5011173;28;20517;-46
2021/03/21 04:59:12;;;;;;;15.20;2.95;;;6.10;94.20;;;;;;5009439;28;20049;-44
2021/03/21 05:02:28;;;;;;;16.00;3.45;;;6.10;94.20;;;;;;5011043;28;20049;-45
2021/03/21 05:05:23;;;;;;;16.50;2.97;;;6.10;94.30;;;;;;4934714;29;20812;-45
2021/03/21 05:08:02;;;;;;;15.57;2.22;;;6.10;94.40;;;;;;4940623;29;20062;-44
2021/03/21 05:10:36;;;;;;;20.15;2.97;;;6.00;93.70;;;;;;4945159;28;20051;-44
2021/03/21 05:13:23;;;;;;;16.02;3.42;;;6.00;93.10;;;;;;4943578;29;20058;-44
2021/03/21 05:16:01;;;;;;;10.90;2.50;;;6.00;92.90;;;;;;4935088;29;20394;-45
2021/03/21 05:18:34;;;;;;;13.48;2.90;;;6.00;92.70;;;;;;4942743;28;20056;-43
2021/03/21 05:21:06;;;;;;;14.52;2.65;;;6.00;92.90;;;;;;4941554;29;20047;-47
2021/03/21 05:23:51;;;;;;;16.23;2.38;;;6.00;93.00;;;;;;4934175;29;20102;-44
2021/03/21 05:26:29;;;;;;;16.40;3.15;;;6.00;93.00;;;;;;4934275;29;20051;-45
2021/03/21 05:29:21;;;;;;;18.33;3.45;;;6.00;93.00;;;;;;4944413;29;20054;-46
2021/03/21 05:31:50;;;;;;;14.27;3.33;;;6.00;92.60;;;;;;4938104;29;20058;-46
2021/03/21 05:34:22;;;;;;;18.33;3.63;;;6.00;92.50;;;;;;4933840;29;20047;-47
2021/03/21 05:37:08;;;;;;;17.15;3.10;;;6.00;92.10;;;;;;4945188;28;20048;-47
2021/03/21 05:40:17;;;;;;;22.55;3.38;;;6.00;92.00;;;;;;4997109;28;20054;-47
2021/03/21 05:43:17;;;;;;;20.50;3.92;;;6.00;91.90;;;;;;5008099;28;20046;-46
2021/03/21 05:45:54;;;;;;;16.20;3.42;;;6.00;92.00;;;;;;5010236;28;20108;-46
2021/03/21 05:48:40;;;;;;;18.52;3.45;;;6.00;92.10;;;;;;5009710;28;20552;-45
2021/03/21 05:51:18;;;;;;;19.70;3.13;;;6.00;91.50;;;;;;5010420;28;20068;-46
2021/03/21 05:53:59;;;;;;;21.05;4.15;;;6.00;91.60;;;;;;5013323;28;20136;-46
2021/03/21 05:57:05;;;;;;;20.83;4.68;;;6.00;91.60;;;;;;5008110;28;20060;-44
2021/03/21 05:59:48;;;;;;;22.13;4.05;;;6.00;91.20;;;;;;4937357;29;20503;-44
2021/03/21 06:02:39;;;;;;;16.70;3.47;;;6.00;90.90;;;;;;4940465;29;20512;-46
2021/03/21 06:05:32;;;;;;;20.02;4.07;;;6.00;90.20;;;;;;4934528;29;20590;-44
2021/03/21 06:08:28;;;;;;;20.17;3.17;;;6.10;90.50;;;;;;4932964;29;20055;-46
2021/03/21 06:11:18;;;;;;;17.13;3.22;;;6.10;90.10;;;;;;4941812;28;20584;-46
2021/03/21 06:14:11;;;;;;;20.23;3.47;;;6.10;90.40;;;;;;4937914;29;20059;-45
2021/03/21 06:17:17;;;;;;;19.40;3.22;;;6.10;90.10;;;;;;4933143;29;20801;-48
2021/03/21 06:20:27;;;;;;;22.65;3.97;;;6.10;90.50;;;;;;4933824;29;20448;-46
2021/03/21 06:23:01;;;;;;;18.95;3.40;;;6.10;90.10;;;;;;4932669;29;20048;-45
2021/03/21 06:25:52;;;;;;;24.45;4.53;;;6.10;90.40;;;;;;4941449;29;20062;-45
2021/03/21 06:28:26;;;;;;;23.73;5.40;;;6.30;90.40;;;;;;4932967;29;20412;-47
2021/03/21 06:31:21;;;;;;;25.75;5.32;;;6.20;87.20;;;;;;4939848;29;20079;-48
2021/03/21 06:34:15;;;;;;;27.23;4.25;;;6.30;88.10;;;;;;4937675;29;20055;-47
2021/03/21 06:36:58;;;;;;;24.98;5.18;;;6.30;87.80;;;;;;4947517;28;20150;-46
2021/03/21 06:39:37;;;;;;;26.55;5.03;;;6.30;88.10;;;;;;4971109;28;20085;-46
2021/03/21 06:42:32;;;;;;;23.63;4.78;;;6.30;88.30;;;;;;4966710;28;20161;-46
2021/03/21 06:45:17;;;;;;;29.67;5.03;;;6.30;87.50;;;;;;4966676;28;20185;-48
2021/03/21 06:47:58;;;;;;;31.65;5.55;;;6.30;88.00;;;;;;4967473;28;20113;-46
2021/03/21 06:50:36;;;;;;;23.17;5.10;;;6.30;87.00;;;;;;4968106;28;20059;-48
2021/03/21 06:53:10;;;;;;;35.45;6.65;;;6.40;87.00;;;;;;4967923;28;20103;-46
2021/03/21 06:55:49;;;;;;;29.00;5.75;;;6.40;87.80;;;;;;4967008;28;20061;-47
2021/03/21 06:58:54;;;;;;;27.27;5.80;;;6.40;86.30;;;;;;4967260;28;20058;-46
2021/03/21 07:01:35;;;;;;;29.40;4.95;;;6.40;86.20;;;;;;4928986;29;20052;-46
2021/03/21 07:04:22;;;;;;;29.15;5.68;;;6.40;86.60;;;;;;4928431;29;20709;-47
2021/03/21 07:07:25;;;;;;;29.75;6.40;;;6.40;86.00;;;;;;4925753;29;20051;-48
2021/03/21 07:10:09;;;;;;;28.00;6.15;;;6.40;84.80;;;;;;4927097;29;20052;-49
2021/03/21 07:13:06;;;;;;;28.70;6.15;;;6.40;85.10;;;;;;4930436;28;20044;-53
2021/03/21 07:15:41;;;;;;;41.00;6.57;;;6.40;83.40;;;;;;4928883;29;20090;-51
2021/03/21 07:18:33;;;;;;;31.42;5.57;;;6.40;81.60;;;;;;4928571;29;20645;-51
2021/03/21 07:21:17;;;;;;;38.35;6.80;;;6.40;82.40;;;;;;4892121;29;20053;-50
2021/03/21 07:24:42;;;;;;;27.10;6.47;;;6.40;82.80;;;;;;4890588;29;20143;-49
2021/03/21 07:27:47;;;;;;;30.30;5.43;;;6.50;82.80;;;;;;4835436;29;20578;-51
2021/03/21 07:30:21;;;;;;;36.60;7.28;;;6.60;82.00;;;;;;4815704;29;20411;-49
2021/03/21 07:43:50;;;;;;;30.50;6.18;;;6.60;81.30;;;;;;5145388;27;20280;-56
2021/03/21 07:46:28;;;;;;;57.20;21.08;;;6.70;80.50;;;;;;5130293;27;20043;-49
2021/03/21 07:49:04;;;;;;;44.00;13.63;;;6.70;78.90;;;;;;5134009;27;20043;-47
2021/03/21 07:51:40;;;;;;;62.13;27.48;;;6.70;79.60;;;;;;5131799;27;20043;-49
2021/03/21 07:54:46;;;;;;;33.83;7.97;;;6.90;80.40;;;;;;5128924;27;20054;-49
2021/03/21 07:57:21;;;;;;;32.30;8.98;;;6.90;79.30;;;;;;5128123;27;20124;-47
2021/03/21 07:59:50;;;;;;;49.25;18.58;;;6.90;80.00;;;;;;5125871;27;20043;-49
2021/03/21 08:02:31;;;;;;;33.47;7.40;;;6.90;81.00;;;;;;5131044;27;20075;-48
2021/03/21 08:05:25;;;;;;;42.38;11.57;;;7.00;79.80;;;;;;5122926;27;20718;-47
2021/03/21 08:07:53;;;;;;;81.00;45.95;;;7.20;81.40;;;;;;5122195;27;20522;-50
2021/03/21 08:10:31;;;;;;;35.90;8.40;;;7.30;80.40;;;;;;5126706;27;20043;-49
2021/03/21 08:13:04;;;;;;;86.10;51.47;;;7.20;78.50;;;;;;5139018;27;20054;-48
2021/03/21 08:15:35;;;;;;;41.30;12.02;;;7.30;80.90;;;;;;5130669;27;20382;-49
2021/03/21 08:18:09;;;;;;;47.95;16.23;;;7.30;79.10;;;;;;5125856;27;20058;-48
2021/03/21 08:20:43;;;;;;;39.38;11.85;;;7.40;78.80;;;;;;5127290;27;20514;-48
2021/03/21 08:23:19;;;;;;;34.97;8.20;;;7.30;78.10;;;;;;5133294;27;20043;-52
2021/03/21 08:25:47;;;;;;;44.60;22.17;;;7.40;78.90;;;;;;5137684;27;20038;-46
2021/03/21 08:28:19;;;;;;;43.67;13.02;;;7.40;76.10;;;;;;5122083;27;20058;-46
2021/03/21 08:30:50;;;;;;;;;;;7.40;77.90;;;;;;5138650;27;20097;-46
2021/03/21 08:33:31;;;;;;;35.10;10.23;;;7.50;76.20;;;;;;5136650;27;19996;-44
2021/03/21 08:36:06;;;;;;;38.55;9.63;;;7.60;77.30;;;;;;5131228;27;20167;-43
2021/03/21 08:38:33;;;;;;;37.17;10.02;;;7.70;75.50;;;;;;5131750;27;20158;-41
2021/03/21 08:41:00;;;;;;;51.00;21.08;;;7.80;76.30;;;;;;5137870;27;20103;-43
2021/03/21 08:43:35;;;;;;;30.50;7.63;;;8.20;73.90;;;;;;5131868;27;20105;-51
2021/03/21 08:46:07;;;;;;;33.55;10.60;;;8.20;72.80;;;;;;5116885;27;20147;-44
2021/03/21 08:48:38;;;;;;;35.72;7.88;;;8.00;73.70;;;;;;5118396;27;20047;-43
2021/03/21 08:51:12;;;;;;;30.13;6.90;;;8.00;73.60;;;;;;5112194;27;20043;-44
2021/03/21 08:53:57;;;;;;;35.65;8.30;;;8.00;73.20;;;;;;5113824;27;20513;-43
2021/03/21 08:56:46;;;;;;;33.20;7.90;;;8.10;74.10;;;;;;5122192;27;20058;-44
2021/03/21 08:59:27;;;;;;;37.30;8.23;;;8.10;73.40;;;;;;5113316;27;20559;-42
2021/03/21 09:02:26;;;;;;;29.33;6.90;;;7.80;73.20;;;;;;5121879;27;20039;-44
2021/03/21 09:05:04;;;;;;;38.22;9.68;;;7.80;74.10;;;;;;5024471;28;20053;-43
2021/03/21 09:07:34;;;;;;;37.60;8.77;;;7.70;75.10;;;;;;5025980;28;20050;-43
2021/03/21 09:10:12;;;;;;;43.70;13.38;;;7.70;75.80;;;;;;5026921;28;20128;-42
2021/03/21 09:12:46;;;;;;;34.58;7.53;;;7.60;74.00;;;;;;5027576;28;20050;-42
2021/03/21 09:15:36;;;;;;;33.50;9.15;;;7.50;72.90;;;;;;5026187;28;20045;-44
2021/03/21 09:18:17;;;;;;;35.63;10.60;;;7.60;74.40;;;;;;5025477;28;20061;-44
2021/03/21 09:20:55;;;;;;;34.03;6.55;;;7.60;74.10;;;;;;5023771;28;20072;-44
2021/03/21 09:23:43;;;;;;;33.80;8.45;;;7.60;74.40;;;;;;5025845;28;20049;-44
2021/03/21 09:26:11;;;;;;;37.30;7.22;;;7.70;74.30;;;;;;5026577;28;20493;-44
2021/03/21 09:28:47;;;;;;;34.53;7.47;;;7.70;73.50;;;;;;5026247;28;20143;-44
2021/03/21 09:31:24;;;;;;;34.42;8.02;;;7.80;72.30;;;;;;5025726;28;20801;-44
2021/03/21 09:34:18;;;;;;;37.80;7.03;;;7.70;72.20;;;;;;5025876;28;20062;-43
2021/03/21 09:37:00;;;;;;;46.50;12.43;;;7.90;72.60;;;;;;5024604;28;20591;-43
2021/03/21 09:39:42;;;;;;;32.17;8.15;;;7.80;71.60;;;;;;5029647;28;20557;-43
2021/03/21 09:42:18;;;;;;;25.27;7.07;;;7.90;70.30;;;;;;5091704;27;20047;-42
2021/03/21 09:44:47;;;;;;;33.65;9.40;;;8.10;70.50;;;;;;5123369;27;20058;-44
2021/03/21 09:47:23;;;;;;;29.88;7.18;;;8.50;69.90;;;;;;5116725;27;20043;-43
2021/03/21 09:50:07;;;;;;;41.13;9.00;;;8.50;70.30;;;;;;5118102;27;20043;-42
2021/03/21 09:53:07;;;;;;;31.42;7.05;;;8.50;70.40;;;;;;5120103;27;20056;-42
2021/03/21 09:55:48;;;;;;;36.35;8.25;;;8.50;70.10;;;;;;5115626;27;20051;-43
2021/03/21 09:58:44;;;;;;;38.95;7.57;;;8.30;69.50;;;;;;5123139;27;20055;-45
2021/03/21 10:01:33;;;;;;;32.75;7.47;;;8.10;68.90;;;;;;5104019;27;20138;-42
2021/03/21 10:04:15;;;;;;;40.88;8.85;;;8.20;69.50;;;;;;5109857;28;20059;-43
2021/03/21 10:06:44;;;;;;;32.83;7.07;;;8.20;69.80;;;;;;5118233;27;20130;-44
2021/03/21 10:09:20;;;;;;;37.25;7.63;;;8.10;70.20;;;;;;5105927;27;20043;-42
2021/03/21 10:12:08;;;;;;;34.75;8.45;;;8.20;69.60;;;;;;5116152;27;20128;-43
2021/03/21 10:14:40;;;;;;;34.58;7.68;;;8.40;69.90;;;;;;5118931;27;20443;-44
2021/03/21 10:17:20;;;;;;;31.67;7.97;;;8.40;69.80;;;;;;5116360;27;20058;-45
2021/03/21 10:19:53;;;;;;;28.98;7.47;;;8.50;68.80;;;;;;5125360;27;20036;-43
2021/03/21 10:22:31;;;;;;;35.08;7.43;;;8.40;68.20;;;;;;5117063;27;20047;-42
2021/03/21 10:25:38;;;;;;;35.45;7.38;;;8.30;68.80;;;;;;5126051;27;20050;-43
2021/03/21 10:28:43;;;;;;;28.00;6.88;;;8.20;68.20;;;;;;5117274;27;20047;-43
2021/03/21 10:31:26;;;;;;;35.08;7.68;;;8.20;69.00;;;;;;5117218;27;20062;-41
2021/03/21 10:34:02;;;;;;;31.63;6.65;;;8.20;69.40;;;;;;5116266;27;20050;-41
2021/03/21 10:36:43;;;;;;;30.88;8.02;;;8.20;69.00;;;;;;5118175;27;20048;-46
2021/03/21 10:39:18;;;;;;;38.40;7.70;;;8.30;68.00;;;;;;5111856;27;20046;-43
2021/03/21 10:42:03;;;;;;;35.13;8.13;;;8.30;67.20;;;;;;5117080;27;20051;-42
2021/03/21 10:44:38;;;;;;;;;;;8.40;68.00;;;;;;5122307;27;20043;-42
2021/03/21 10:47:33;;;;;;;24.92;6.63;;;8.30;67.10;;;;;;5115606;27;20363;-43
2021/03/21 10:50:22;;;;;;;28.70;6.47;;;8.40;69.40;;;;;;5121675;27;20079;-42
2021/03/21 10:53:23;;;;;;;31.35;7.15;;;8.40;68.10;;;;;;5117514;27;20195;-42
2021/03/21 10:56:13;;;;;;;38.17;8.63;;;8.20;68.00;;;;;;5124380;27;20047;-41
2021/03/21 10:58:53;;;;;;;32.22;7.57;;;8.00;68.30;;;;;;5118263;27;20043;-41
2021/03/21 11:01:25;;;;;;;30.17;7.15;;;8.10;69.30;;;;;;5123637;27;20047;-41
2021/03/21 11:03:59;;;;;;;37.42;6.70;;;8.10;68.90;;;;;;5112967;27;20555;-41
2021/03/21 11:06:46;;;;;;;32.50;7.18;;;8.00;69.10;;;;;;5111745;27;20043;-40
2021/03/21 11:09:25;;;;;;;40.63;7.10;;;8.00;69.30;;;;;;5113877;27;20051;-41
2021/03/21 11:11:57;;;;;;;36.58;7.38;;;7.90;69.00;;;;;;5117258;27;20043;-42
2021/03/21 11:14:44;;;;;;;35.42;7.55;;;7.90;69.90;;;;;;5110981;27;20043;-42
2021/03/21 11:17:30;;;;;;;29.05;6.88;;;7.90;70.60;;;;;;5113892;27;20043;-42
2021/03/21 11:19:57;;;;;;;36.25;8.02;;;8.00;70.10;;;;;;5114731;27;20047;-49
2021/03/21 11:22:30;;;;;;;34.72;7.93;;;8.20;70.00;;;;;;5118454;27;20058;-51
2021/03/21 11:24:56;;;;;;;37.45;7.95;;;8.30;69.60;;;;;;5116023;27;20050;-51
2021/03/21 11:27:32;;;;;;;35.03;7.93;;;8.20;69.30;;;;;;5117115;27;20080;-52
2021/03/21 11:30:11;;;;;;;30.70;7.63;;;8.20;67.90;;;;;;5113558;28;20128;-52
2021/03/21 11:32:37;;;;;;;35.03;7.50;;;8.30;69.90;;;;;;5121413;27;20134;-52
2021/03/21 11:35:26;;;;;;;30.60;7.15;;;8.30;68.30;;;;;;5122378;28;20158;-58
2021/03/21 11:37:56;;;;;;;36.55;7.97;;;8.20;67.60;;;;;;5116015;28;20039;-50
2021/03/21 11:40:31;;;;;;;32.15;7.35;;;8.30;69.00;;;;;;5122879;27;20039;-52
2021/03/21 11:43:21;;;;;;;81.10;47.10;;;8.30;69.10;;;;;;5114051;28;20077;-47
2021/03/21 11:46:09;;;;;;;48.53;21.27;;;8.80;69.80;;;;;;5110859;28;20058;-47
2021/03/21 11:48:36;;;;;;;57.92;30.00;;;8.60;67.20;;;;;;5113023;28;20078;-47
2021/03/21 11:51:11;;;;;;;41.78;12.85;;;8.50;68.40;;;;;;5116943;28;20112;-48
2021/03/21 11:53:41;;;;;;;41.95;12.02;;;8.70;68.50;;;;;;5122897;27;20086;-47
2021/03/21 11:56:21;;;;;;;32.75;7.70;;;8.70;68.00;;;;;;5102024;28;20131;-48
2021/03/21 11:58:55;;;;;;;33.70;8.00;;;8.50;64.90;;;;;;5107688;28;20047;-52
2021/03/21 12:01:41;;;;;;;36.35;11.70;;;8.50;66.00;;;;;;5115861;27;20039;-41
2021/03/21 12:04:18;;;;;;;36.58;8.82;;;8.50;66.70;;;;;;5090596;28;20758;-42
2021/03/21 12:07:00;;;;;;;30.30;6.57;;;8.40;66.60;;;;;;5104966;28;20052;-42
2021/03/21 12:09:51;;;;;;;32.83;7.47;;;8.30;64.10;;;;;;5087033;28;20051;-42
2021/03/21 12:12:37;;;;;;;35.35;7.45;;;8.60;65.80;;;;;;5100932;28;20086;-45
2021/03/21 12:15:14;;;;;;;27.05;7.20;;;8.60;64.90;;;;;;5107560;28;21034;-46
2021/03/21 12:17:48;;;;;;;120.05;72.65;;;8.60;66.10;;;;;;5109272;27;20402;-47
2021/03/21 12:20:31;;;;;;;59.28;22.02;;;8.60;66.70;;;;;;5114656;27;20051;-47
2021/03/21 12:22:58;;;;;;;32.45;7.18;;;8.70;66.00;;;;;;5117628;27;20075;-45
2021/03/21 12:25:34;;;;;;;54.35;25.90;;;8.70;65.50;;;;;;5116014;27;20052;-46
2021/03/21 12:28:22;;;;;;;23.70;6.38;;;8.80;66.30;;;;;;5118431;27;20100;-45
2021/03/21 12:31:01;;;;;;;39.17;9.27;;;8.90;64.10;;;;;;5114705;27;20070;-47
2021/03/21 12:33:34;;;;;;;;;;;8.80;64.50;;;;;;5114734;27;20065;-46
2021/03/21 12:36:21;;;;;;;29.67;6.90;;;9.00;64.90;;;;;;5119578;27;19951;-44
2021/03/21 12:38:58;;;;;;;33.90;11.52;;;9.00;64.30;;;;;;5116300;27;20051;-44
2021/03/21 12:41:42;;;;;;;173.88;119.90;;;9.10;64.40;;;;;;5120842;27;20549;-46
2021/03/21 12:44:16;;;;;;;57.03;30.63;;;9.30;65.30;;;;;;5112610;27;20096;-47
2021/03/21 12:46:47;;;;;;;33.00;12.25;;;9.30;64.00;;;;;;5113239;27;20116;-44
2021/03/21 12:49:31;;;;;;;41.17;17.27;;;9.40;63.90;;;;;;5110155;27;20088;-43
2021/03/21 12:52:11;;;;;;;29.98;8.13;;;9.40;61.90;;;;;;5109122;27;20047;-44
2021/03/21 12:54:40;;;;;;;32.53;10.50;;;9.50;63.50;;;;;;5111971;27;20431;-42
2021/03/21 12:57:14;;;;;;;33.78;9.88;;;9.30;62.90;;;;;;5114629;27;20502;-43
2021/03/21 12:59:43;;;;;;;37.63;8.98;;;9.30;63.50;;;;;;5114409;27;20130;-42
2021/03/21 13:02:33;;;;;;;36.25;13.00;;;9.10;63.40;;;;;;5109966;27;20044;-43
2021/03/21 13:05:08;;;;;;;33.47;8.32;;;9.20;64.20;;;;;;5112279;27;20047;-43
2021/03/21 13:07:39;;;;;;;24.77;7.85;;;9.00;63.10;;;;;;5109536;28;20044;-43
2021/03/21 13:10:09;;;;;;;29.73;7.87;;;8.80;61.60;;;;;;5116269;27;20092;-42
2021/03/21 13:12:35;;;;;;;28.88;7.03;;;8.80;63.90;;;;;;5115410;27;20301;-43
2021/03/21 13:15:03;;;;;;;28.27;8.13;;;8.60;62.70;;;;;;5123117;27;20045;-42
2021/03/21 13:17:29;;;;;;;29.58;7.65;;;8.70;64.70;;;;;;5107181;27;20047;-42
2021/03/21 13:19:57;;;;;;;29.27;8.57;;;8.70;65.40;;;;;;5112955;27;20078;-43
2021/03/21 13:22:29;;;;;;;34.63;7.15;;;8.80;66.10;;;;;;5113578;27;20165;-42
2021/03/21 13:24:58;;;;;;;23.15;6.63;;;8.80;66.00;;;;;;5114594;27;20169;-44
2021/03/21 13:27:26;;;;;;;26.87;6.33;;;8.80;66.00;;;;;;5110591;27;20102;-42
2021/03/21 13:29:56;;;;;;;22.98;6.20;;;8.80;66.10;;;;;;5108926;28;20797;-42
2021/03/21 13:32:25;;;;;;;31.48;8.32;;;8.80;65.80;;;;;;5110641;27;20126;-43
2021/03/21 13:34:58;;;;;;;32.90;13.13;;;8.60;65.90;;;;;;5111450;27;20503;-42
2021/03/21 13:37:27;;;;;;;29.33;6.90;;;8.60;66.70;;;;;;5116721;27;20083;-44
2021/03/21 13:39:54;;;;;;;33.17;6.05;;;8.30;65.20;;;;;;5110319;27;20051;-47
2021/03/21 13:42:23;;;;;;;27.60;6.80;;;8.30;66.60;;;;;;5113249;27;20060;-47
2021/03/21 13:44:57;;;;;;;41.25;9.70;;;8.20;67.50;;;;;;5113736;27;20047;-43
2021/03/21 13:47:23;;;;;;;36.53;10.20;;;8.00;66.50;;;;;;5113203;27;20043;-47
2021/03/21 13:49:51;;;;;;;32.67;8.20;;;8.10;67.60;;;;;;5114622;27;20062;-45
2021/03/21 13:52:20;;;;;;;26.00;8.32;;;8.10;67.30;;;;;;5114058;27;20071;-44
2021/03/21 13:54:50;;;;;;;24.88;5.63;;;8.20;66.00;;;;;;5110345;27;20051;-44
2021/03/21 13:57:21;;;;;;;28.10;6.43;;;8.40;65.50;;;;;;5113859;27;20043;-48